createdAt,value
2019-02-18T00:00:02.005Z,8.43
2019-02-18T00:05:06.331Z,8.25
2019-02-18T00:10:10.517Z,7.90
2019-02-18T00:15:15.000Z,7.47
2019-02-18T00:20:19.193Z,8.25
2019-02-18T00:25:23.367Z,8.03
2019-02-18T00:30:27.629Z,7.50
2019-02-18T00:35:31.899Z,8.20
2019-02-18T00:40:36.184Z,7.73
2019-02-18T00:45:40.386Z,8.17
2019-02-18T00:50:44.575Z,8.43
2019-02-18T00:55:48.774Z,7.83
2019-02-18T01:00:52.958Z,7.85
2019-02-18T01:05:57.197Z,8.40
2019-02-18T01:11:01.394Z,7.95
2019-02-18T01:16:05.632Z,8.03
2019-02-18T01:21:09.832Z,8.05
2019-02-18T01:26:14.018Z,7.73
2019-02-18T01:31:18.249Z,8.33
2019-02-18T01:36:23.134Z,7.90
2019-02-18T01:41:27.651Z,7.83
2019-02-18T01:46:31.848Z,7.80
2019-02-18T01:51:36.058Z,7.97
2019-02-18T01:56:40.320Z,8.48
2019-02-18T02:01:44.534Z,7.73
2019-02-18T02:06:48.731Z,7.75
2019-02-18T02:11:52.929Z,7.40
2019-02-18T02:16:57.120Z,8.38
2019-02-18T02:22:01.300Z,8.30
2019-02-18T02:27:05.573Z,7.67
2019-02-18T02:32:09.742Z,7.77
2019-02-18T02:37:13.973Z,7.28
2019-02-18T02:42:18.237Z,7.80
2019-02-18T02:47:22.520Z,7.93
2019-02-18T02:52:26.774Z,7.85
2019-02-18T02:57:32.892Z,7.83
2019-02-18T03:02:36.894Z,7.55
2019-02-18T03:07:41.114Z,8.80
2019-02-18T03:12:45.288Z,8.27
2019-02-18T03:17:49.471Z,8.17
2019-02-18T03:22:53.670Z,7.40
2019-02-18T03:28:09.194Z,7.67
2019-02-18T03:33:15.320Z,7.90
2019-02-18T03:38:30.834Z,8.30
2019-02-18T03:43:25.681Z,7.70
2019-02-18T03:48:29.947Z,8.63
2019-02-18T03:53:34.119Z,8.83
2019-02-18T03:58:38.333Z,8.23
2019-02-18T04:03:42.539Z,8.00
2019-02-18T04:08:46.747Z,8.87
2019-02-18T04:13:50.941Z,8.03
2019-02-18T04:18:55.121Z,8.67
2019-02-18T04:23:59.428Z,8.33
2019-02-18T04:29:03.614Z,8.60
2019-02-18T04:34:07.922Z,9.20
2019-02-18T04:39:12.132Z,8.67
2019-02-18T04:44:16.404Z,9.00
2019-02-18T04:49:20.657Z,9.30
2019-02-18T04:54:24.973Z,9.27
2019-02-18T04:59:29.205Z,9.17
2019-02-18T05:04:33.476Z,10.03
2019-02-18T05:09:39.844Z,9.17
2019-02-18T05:14:43.592Z,10.90
2019-02-18T05:19:47.776Z,9.83
2019-02-18T05:24:52.044Z,9.90
2019-02-18T05:29:59.105Z,9.53
2019-02-18T05:35:03.401Z,10.07
2019-02-18T05:40:08.032Z,9.40
2019-02-18T05:45:12.281Z,9.50
2019-02-18T05:50:16.476Z,10.33
2019-02-18T05:55:20.669Z,10.17
2019-02-18T06:00:25.010Z,11.40
2019-02-18T06:05:29.255Z,11.00
2019-02-18T06:10:33.437Z,10.00
2019-02-18T06:15:37.694Z,10.20
2019-02-18T06:20:41.875Z,10.17
2019-02-18T06:25:46.070Z,10.03
2019-02-18T06:30:50.244Z,11.63
2019-02-18T06:35:54.533Z,10.33
2019-02-18T06:40:58.753Z,10.27
2019-02-18T06:46:20.944Z,10.27
2019-02-18T06:51:25.205Z,10.37
2019-02-18T06:56:48.993Z,9.57
2019-02-18T07:02:04.383Z,10.37
2019-02-18T07:07:36.718Z,11.33
2019-02-18T07:12:46.980Z,10.20
2019-02-18T07:17:51.256Z,10.27
2019-02-18T07:22:55.485Z,9.77
2019-02-18T07:27:59.698Z,10.83
2019-02-18T07:33:03.891Z,9.85
2019-02-18T07:38:08.106Z,10.90
2019-02-18T07:43:12.367Z,10.70
2019-02-18T07:48:16.601Z,10.50
2019-02-18T07:53:20.784Z,10.90
2019-02-18T07:58:25.055Z,10.80
2019-02-18T08:03:29.236Z,10.63
2019-02-18T08:08:33.517Z,10.32
2019-02-18T08:13:38.896Z,9.98
2019-02-18T08:18:43.109Z,10.58
2019-02-18T08:23:47.299Z,10.25
2019-02-18T08:28:51.613Z,10.50
2019-02-18T08:33:55.939Z,10.53
2019-02-18T08:39:00.122Z,11.35
2019-02-18T08:44:04.517Z,10.43
2019-02-18T08:49:08.720Z,10.68
2019-02-18T08:54:12.932Z,11.15
2019-02-18T08:59:17.133Z,10.70
2019-02-18T09:04:20.876Z,10.23
2019-02-18T09:09:25.084Z,10.00
2019-02-18T09:14:29.274Z,10.48
2019-02-18T09:19:33.540Z,10.85
2019-02-18T09:24:46.754Z,11.20
2019-02-18T09:29:50.967Z,11.95
2019-02-18T09:35:01.777Z,11.57
2019-02-18T09:40:01.152Z,11.65
2019-02-18T09:45:05.885Z,11.45
2019-02-18T09:50:10.149Z,11.30
2019-02-18T09:55:14.427Z,12.28
2019-02-18T10:00:18.674Z,11.35
2019-02-18T10:05:22.869Z,11.05
2019-02-18T10:10:27.086Z,10.95
2019-02-18T10:15:31.301Z,11.20
2019-02-18T10:20:35.578Z,11.57
2019-02-18T10:25:39.339Z,11.25
2019-02-18T10:30:43.539Z,10.70
2019-02-18T10:35:47.715Z,10.68
2019-02-18T10:40:51.945Z,10.82
2019-02-18T10:50:20.199Z,11.38
2019-02-18T10:55:24.475Z,11.18
2019-02-18T11:00:30.215Z,11.22
2019-02-18T11:05:34.540Z,10.05
2019-02-18T11:10:38.897Z,10.53
2019-02-18T11:15:43.115Z,10.90
2019-02-18T11:20:47.393Z,10.00
2019-02-18T11:25:51.599Z,9.55
2019-02-18T11:30:55.851Z,10.18
2019-02-18T11:36:00.068Z,10.10
2019-02-18T11:41:04.348Z,9.85
2019-02-18T11:46:08.915Z,9.68
2019-02-18T11:51:13.411Z,10.18
2019-02-18T11:56:17.686Z,9.45
2019-02-18T12:01:22.017Z,10.13
2019-02-18T12:06:26.299Z,10.35
2019-02-18T12:11:37.805Z,9.40
2019-02-18T12:16:36.560Z,9.78
2019-02-18T12:21:40.826Z,9.78
2019-02-18T12:26:45.109Z,9.25
2019-02-18T12:31:49.484Z,10.38
2019-02-18T12:36:53.709Z,9.33
2019-02-18T12:41:57.990Z,10.45
2019-02-18T12:47:02.294Z,10.50
2019-02-18T12:52:06.961Z,9.98
2019-02-18T13:00:54.004Z,10.35
2019-02-18T13:05:58.739Z,10.85
2019-02-18T13:11:03.157Z,10.53
2019-02-18T13:16:07.476Z,10.23
2019-02-18T13:21:11.795Z,9.85
2019-02-18T13:26:16.132Z,10.98
2019-02-18T13:31:20.413Z,11.48
2019-02-18T13:36:24.732Z,12.10
2019-02-18T13:41:29.334Z,11.05
2019-02-18T13:46:34.921Z,10.85
2019-02-18T13:51:39.555Z,10.98
2019-02-18T13:56:44.555Z,11.30
2019-02-18T14:01:48.764Z,11.08
2019-02-18T14:06:53.983Z,11.05
2019-02-18T14:11:58.294Z,10.82
2019-02-18T14:17:03.563Z,10.82
2019-02-18T14:22:08.608Z,11.05
2019-02-18T14:27:13.818Z,10.58
2019-02-18T14:32:18.207Z,10.75
2019-02-18T14:37:21.984Z,11.18
2019-02-18T14:42:25.692Z,10.38
2019-02-18T14:47:31.805Z,9.98
2019-02-18T14:52:35.617Z,10.15
2019-02-18T14:57:39.761Z,10.10
2019-02-18T15:02:43.642Z,9.78
2019-02-18T15:07:47.391Z,10.60
2019-02-18T15:12:51.208Z,9.88
2019-02-18T15:17:55.459Z,10.87
2019-02-18T15:22:59.849Z,9.10
2019-02-18T15:28:04.139Z,9.80
2019-02-18T15:33:08.504Z,7.58
2019-02-18T15:38:12.976Z,9.50
2019-02-18T15:43:17.237Z,9.40
2019-02-18T15:48:21.546Z,9.08
2019-02-18T15:53:25.887Z,9.03
2019-02-18T15:58:30.612Z,8.80
2019-02-18T16:03:34.944Z,7.90
2019-02-18T16:08:39.212Z,8.90
2019-02-18T16:13:43.583Z,8.88
2019-02-18T16:18:47.886Z,8.58
2019-02-18T16:23:52.173Z,8.25
2019-02-18T16:28:56.535Z,8.80
2019-02-18T16:34:00.832Z,8.60
2019-02-18T16:39:06.573Z,9.28
2019-02-18T16:44:10.782Z,8.10
2019-02-18T16:49:15.168Z,8.03
2019-02-18T16:54:19.556Z,9.05
2019-02-18T16:59:23.776Z,8.78
2019-02-18T17:04:28.046Z,8.40
2019-02-18T17:09:32.439Z,13.40
2019-02-18T17:14:36.680Z,13.48
2019-02-18T17:19:41.109Z,8.50
2019-02-18T17:24:45.393Z,8.85
2019-02-18T17:29:49.766Z,8.00
2019-02-18T17:34:54.504Z,7.97
2019-02-18T17:39:58.793Z,8.20
2019-02-18T17:45:03.113Z,8.23
2019-02-18T17:50:09.400Z,8.48
2019-02-18T17:55:14.100Z,9.08
2019-02-18T18:00:21.519Z,9.25
2019-02-18T18:05:26.097Z,9.43
2019-02-18T18:10:30.369Z,10.58
2019-02-18T18:15:34.692Z,9.98
2019-02-18T18:20:40.120Z,10.90
2019-02-18T18:25:44.473Z,10.43
2019-02-18T18:30:48.762Z,10.58
2019-02-18T18:35:53.436Z,10.08
2019-02-18T18:40:57.760Z,10.38
2019-02-18T18:46:02.011Z,9.93
2019-02-18T18:51:06.231Z,10.20
2019-02-18T18:56:11.959Z,10.15
2019-02-18T19:01:16.164Z,10.03
2019-02-18T19:06:20.388Z,11.20
2019-02-18T19:11:24.947Z,10.15
2019-02-18T19:16:29.243Z,9.73
2019-02-18T19:21:33.613Z,9.25
2019-02-18T19:26:38.035Z,9.60
2019-02-18T19:31:42.381Z,9.38
2019-02-18T19:36:46.677Z,8.90
2019-02-18T19:41:50.940Z,8.28
2019-02-18T19:46:55.241Z,8.18
2019-02-18T19:51:59.452Z,8.73
2019-02-18T19:57:03.656Z,8.13
2019-02-18T20:02:07.963Z,7.67
2019-02-18T20:07:12.269Z,7.40
2019-02-18T20:12:16.651Z,7.80
2019-02-18T20:17:20.972Z,7.83
2019-02-18T20:22:25.352Z,7.75
2019-02-18T20:27:29.546Z,7.75
2019-02-18T20:32:33.807Z,7.40
2019-02-18T20:37:38.210Z,8.33
2019-02-18T20:42:42.505Z,8.05
2019-02-18T20:47:46.821Z,8.68
2019-02-18T20:52:51.100Z,8.53
2019-02-18T20:57:57.180Z,8.50
2019-02-18T21:03:01.397Z,8.68
2019-02-18T21:08:05.726Z,8.83
2019-02-18T21:13:10.018Z,8.48
2019-02-18T21:18:14.322Z,8.88
2019-02-18T21:23:18.627Z,8.68
2019-02-18T21:28:23.030Z,9.18
2019-02-18T21:33:27.623Z,9.23
2019-02-18T21:38:31.930Z,9.58
2019-02-18T21:43:36.230Z,9.28
2019-02-18T21:48:40.594Z,9.10
2019-02-18T21:53:44.883Z,9.25
2019-02-18T21:58:49.090Z,9.75
2019-02-18T22:03:53.402Z,9.50
2019-02-18T22:15:02.181Z,9.75
2019-02-18T22:20:07.488Z,9.75
2019-02-18T22:25:12.170Z,10.28
2019-02-18T22:30:16.464Z,11.85
2019-02-18T22:35:20.814Z,11.10
2019-02-18T22:40:25.038Z,11.08
2019-02-18T22:45:29.423Z,10.50
2019-02-18T22:50:33.994Z,11.43
2019-02-18T22:55:38.194Z,10.78
2019-02-18T23:00:57.914Z,9.95
2019-02-18T23:06:02.179Z,11.22
2019-02-18T23:11:06.387Z,10.45
2019-02-18T23:16:10.600Z,10.80
2019-02-18T23:21:14.791Z,10.20
2019-02-18T23:26:19.424Z,9.83
2019-02-18T23:31:23.621Z,9.58
2019-02-18T23:36:27.895Z,11.00
2019-02-18T23:41:32.175Z,9.95
2019-02-18T23:46:36.569Z,10.03
2019-02-18T23:51:40.749Z,9.77
2019-02-18T23:56:45.045Z,8.35
